Time;durP1;ratioP1;P1;durP2;ratioP2;P2;SDS_P1;SDS_P2;PMS_P1;PMS_P2;Temp;Humidity;BMP_temperature;BMP_pressure;BME280_temperature;BME280_humidity;BME280_pressure;Samples;Min_cycle;Max_cycle;Signal;HPM_P1;HPM_P2
2022/01/13 00:00:06;;;;;;;20.53;7.23;;;;;;;-12.84;74.90;97293.63;1786905;80;21027;-66
2022/01/13 00:02:36;;;;;;;11.97;5.80;;;;;;;-12.86;74.47;97299.81;1786965;80;21027;-66
2022/01/13 00:05:05;;;;;;;5.83;3.20;;;;;;;-12.92;74.15;97301.77;1786724;80;21608;-66
2022/01/13 00:07:36;;;;;;;7.43;4.00;;;;;;;-12.87;74.64;97299.69;1754296;80;21014;-66
2022/01/13 00:10:05;;;;;;;9.63;3.90;;;;;;;-12.79;74.54;97296.61;1787152;80;20951;-66
2022/01/13 00:12:41;;;;;;;14.03;6.63;;;;;;;-12.86;74.53;97309.98;1787079;80;20976;-66
2022/01/13 00:15:22;;;;;;;13.60;7.07;;;;;;;-12.86;74.67;97307.44;1786953;80;21034;-66
2022/01/13 00:18:01;;;;;;;18.77;7.87;;;;;;;-12.80;74.62;97319.84;1784290;80;21047;-66
2022/01/13 00:25:38;;;;;;;18.60;8.77;;;;;;;-12.89;74.23;97322.77;1787228;80;21055;-66
2022/01/13 00:28:17;;;;;;;19.50;8.47;;;;;;;-12.99;73.60;97332.41;1786730;80;21007;-66
2022/01/13 00:30:41;;;;;;;8.73;4.43;;;;;;;-13.08;73.44;97328.95;1787052;80;21465;-66
2022/01/13 00:33:10;;;;;;;6.97;3.23;;;;;;;-13.10;73.96;97330.09;1787023;80;21006;-66
2022/01/13 00:35:36;;;;;;;7.27;3.23;;;;;;;-12.97;74.39;97329.65;1787367;80;20993;-66
2022/01/13 00:38:04;;;;;;;7.77;3.37;;;;;;;-12.93;74.33;97333.37;1786753;80;21011;-66
2022/01/13 00:40:31;;;;;;;16.83;6.60;;;;;;;-12.89;74.67;97327.85;1786983;80;21532;-66
2022/01/13 00:42:57;;;;;;;20.47;9.37;;;;;;;-12.81;74.50;97323.14;1792011;80;21015;-66
2022/01/13 00:45:24;;;;;;;19.17;8.57;;;;;;;-12.86;73.85;97331.58;1795681;80;20986;-66
2022/01/13 00:47:50;;;;;;;7.67;3.57;;;;;;;-12.95;73.81;97328.16;1795482;80;21011;-66
2022/01/13 00:50:20;;;;;;;7.53;3.57;;;;;;;-12.99;73.63;97322.62;1795462;80;21011;-66
2022/01/13 00:52:46;;;;;;;8.67;3.40;;;;;;;-12.99;74.12;97330.25;1795193;80;21046;-66
2022/01/13 00:55:20;;;;;;;8.43;3.80;;;;;;;-12.93;74.37;97328.29;1794854;80;21063;-66
2022/01/13 00:57:41;;;;;;;8.73;3.87;;;;;;;-12.87;74.48;97312.39;1793976;80;21078;-66
2022/01/13 01:00:09;;;;;;;9.20;4.80;;;;;;;-12.91;74.10;97308.63;1795758;80;20978;-66
2022/01/13 01:02:36;;;;;;;10.37;4.43;;;;;;;-12.92;74.19;97300.88;1795338;80;21476;-66
2022/01/13 01:05:05;;;;;;;14.77;7.10;;;;;;;-12.79;74.52;97307.67;1795384;80;21018;-66
2022/01/13 01:07:32;;;;;;;8.37;4.43;;;;;;;-12.77;74.15;97307.83;1794828;80;21094;-66
2022/01/13 01:10:02;;;;;;;16.57;7.00;;;;;;;-12.92;73.53;97310.66;1794950;80;21041;-66
2022/01/13 01:12:29;;;;;;;12.13;4.60;;;;;;;-12.96;74.43;97316.19;1795228;80;20987;-66
2022/01/13 01:14:57;;;;;;;9.50;3.93;;;;;;;-12.96;74.12;97314.02;1795570;80;20982;-66
2022/01/13 01:17:27;;;;;;;6.80;3.47;;;;;;;-13.04;74.97;97320.89;1795371;80;21445;-66
2022/01/13 01:19:53;;;;;;;5.63;2.90;;;;;;;-13.04;74.97;97320.89;1795534;80;21002;-66
2022/01/13 01:25:21;;;;;;;12.83;6.47;;;;;;;-13.01;74.94;97320.30;1795237;80;21017;-66
2022/01/13 01:27:37;;;;;;;23.93;11.57;;;;;;;-13.01;74.80;97313.56;1791032;80;21126;-66
2022/01/13 01:30:10;;;;;;;39.67;17.03;;;;;;;-12.93;74.85;97307.96;1794811;80;21066;-66
2022/01/13 01:32:34;;;;;;;51.97;22.30;;;;;;;-12.84;74.80;97311.41;1794664;80;21094;-66
2022/01/13 01:35:04;;;;;;;50.63;23.47;;;;;;;-12.79;74.58;97315.30;1795164;80;20990;-66
2022/01/13 01:37:31;;;;;;;63.53;25.00;;;;;;;-12.73;74.44;97327.69;1795451;80;21500;-66
2022/01/13 01:39:59;;;;;;;55.60;26.60;;;;;;;-12.70;74.43;97321.28;1795334;80;21015;-66
2022/01/13 01:42:28;;;;;;;58.67;24.53;;;;;;;-12.65;74.47;97340.42;1795088;80;21098;-66
2022/01/13 01:44:58;;;;;;;56.43;24.60;;;;;;;-12.83;73.47;97337.33;1795046;80;21587;-66
2022/01/13 01:47:28;;;;;;;57.40;23.47;;;;;;;-13.14;73.24;97342.33;1795505;80;21065;-66
2022/01/13 01:50:01;;;;;;;64.73;27.93;;;;;;;-13.24;73.68;97349.78;1795439;80;21013;-66
2022/01/13 01:52:28;;;;;;;72.75;31.27;;;;;;;-13.28;74.52;97343.90;1765114;80;21011;-66
2022/01/13 01:54:55;;;;;;;61.43;24.53;;;;;;;-13.34;73.88;97337.84;1795410;80;21002;-66
2022/01/13 01:57:24;;;;;;;41.30;16.13;;;;;;;-13.35;74.19;97325.91;1795343;80;20959;-66
2022/01/13 01:59:53;;;;;;;31.63;15.17;;;;;;;-13.35;74.32;97315.75;1795527;80;21015;-66
2022/01/13 02:02:22;;;;;;;38.00;16.57;;;;;;;-13.30;74.73;97318.37;1795522;80;21540;-66
2022/01/13 02:04:51;;;;;;;32.97;15.10;;;;;;;-13.21;75.06;97309.45;1795142;80;21011;-66
2022/01/13 02:07:17;;;;;;;40.33;17.80;;;;;;;-13.19;75.11;97309.23;1795600;80;21021;-66
2022/01/13 02:09:50;;;;;;;33.60;13.90;;;;;;;-13.16;75.54;97318.03;1795043;80;21089;-66
2022/01/13 02:12:20;;;;;;;35.93;16.40;;;;;;;-13.13;75.11;97319.59;1794062;80;21129;-66
2022/01/13 02:17:24;;;;;;;41.97;20.57;;;;;;;-13.24;74.84;97326.92;1636560;87;21520;-66
2022/01/13 02:19:53;;;;;;;47.70;18.93;;;;;;;-13.31;74.33;97331.41;1772935;81;21444;-66
2022/01/13 02:22:20;;;;;;;47.37;19.73;;;;;;;-13.38;74.65;97340.81;1795416;80;21456;-66
2022/01/13 02:24:47;;;;;;;47.80;19.20;;;;;;;-13.48;74.52;97346.61;1795314;80;20995;-66
2022/01/13 02:27:14;;;;;;;35.50;15.63;;;;;;;-13.51;75.27;97347.58;1795406;80;21017;-66
2022/01/13 02:29:41;;;;;;;37.90;16.00;;;;;;;-13.52;75.44;97335.64;1795343;80;21010;-66
2022/01/13 02:32:09;;;;;;;50.90;21.63;;;;;;;-13.52;75.27;97345.41;1795480;80;20947;-66
2022/01/13 02:34:35;;;;;;;56.27;25.03;;;;;;;-13.43;75.95;97336.57;1795465;80;21433;-66
2022/01/13 02:37:04;;;;;;;25.10;13.47;;;;;;;-13.28;75.47;97338.44;1795604;80;21038;-66
2022/01/13 02:39:35;;;;;;;62.63;24.37;;;;;;;-13.40;74.63;97336.87;1794217;80;21042;-66
2022/01/13 02:42:12;;;;;;;43.70;17.43;;;;;;;-13.40;74.63;97336.87;1795522;80;21025;-66
2022/01/13 02:44:40;;;;;;;25.73;11.30;;;;;;;-13.39;74.90;97355.16;1795201;80;21528;-66
2022/01/13 02:47:20;;;;;;;22.70;10.83;;;;;;;-13.37;75.24;97360.02;1789960;80;21043;-66
2022/01/13 02:49:38;;;;;;;27.57;12.20;;;;;;;-13.37;75.85;97362.56;1792124;80;21039;-66
2022/01/13 02:52:05;;;;;;;28.27;12.20;;;;;;;-13.39;76.31;97363.16;1794601;80;21019;-66
2022/01/13 02:54:32;;;;;;;36.83;15.50;;;;;;;-13.39;76.31;97363.16;1794718;80;21082;-66
2022/01/13 02:56:59;;;;;;;49.23;21.30;;;;;;;-13.35;75.99;97366.53;1795463;80;21473;-66
2022/01/13 02:59:25;;;;;;;47.33;20.63;;;;;;;-13.34;75.27;97370.86;1795533;80;21378;-66
2022/01/13 03:01:52;;;;;;;61.00;23.63;;;;;;;-13.39;75.11;97370.77;1795280;80;21675;-66
2022/01/13 03:04:21;;;;;;;26.67;12.33;;;;;;;-13.28;75.15;97364.22;1795197;80;21485;-66
2022/01/13 03:06:50;;;;;;;37.30;16.83;;;;;;;-13.28;75.15;97364.22;1795065;80;21011;-66
2022/01/13 03:09:17;;;;;;;39.63;16.73;;;;;;;-13.32;75.30;97360.48;1787681;80;21030;-66
2022/01/13 03:11:47;;;;;;;51.67;21.90;;;;;;;-13.35;75.53;97354.73;1795443;80;21476;-66
2022/01/13 03:14:13;;;;;;;36.33;17.27;;;;;;;-13.34;75.83;97351.81;1795180;80;21555;-66
2022/01/13 03:16:43;;;;;;;20.50;10.63;;;;;;;-13.28;75.80;97347.70;1795137;80;21023;-66
2022/01/13 03:19:11;;;;;;;15.97;8.40;;;;;;;-13.22;75.60;97344.11;1795556;80;21025;-66
2022/01/13 03:21:39;;;;;;;19.47;10.00;;;;;;;-13.25;75.46;97332.73;1794910;80;21086;-66
2022/01/13 03:24:10;;;;;;;24.87;11.40;;;;;;;-13.22;75.60;97326.33;1794955;80;21577;-66
2022/01/13 03:26:36;;;;;;;21.97;10.93;;;;;;;-13.17;75.88;97311.17;1795215;80;21509;-66
2022/01/13 03:31:43;;;;;;;40.40;18.30;;;;;;;-13.08;75.94;97310.82;1795477;80;20979;-66
2022/01/13 03:34:11;;;;;;;48.73;20.73;;;;;;;-13.13;75.25;97317.06;1795487;80;21007;-66
2022/01/13 03:36:38;;;;;;;45.10;18.90;;;;;;;-13.05;75.35;97330.55;1795390;80;21026;-66
2022/01/13 03:39:06;;;;;;;45.90;19.63;;;;;;;-13.02;74.86;97325.76;1795063;80;21082;-66
2022/01/13 03:41:35;;;;;;;44.93;18.53;;;;;;;-13.00;75.09;97329.35;1795485;80;21011;-66
2022/01/13 03:44:07;;;;;;;43.53;18.10;;;;;;;-12.84;74.79;97349.91;1789978;80;21015;-66
2022/01/13 03:46:36;;;;;;;39.30;16.40;;;;;;;-12.81;74.52;97346.39;1787303;80;21042;-66
2022/01/13 03:49:07;;;;;;;51.90;20.87;;;;;;;-12.96;73.97;97353.41;1787179;80;21011;-66
2022/01/13 03:52:03;;;;;;;29.57;12.17;;;;;;;-13.03;74.82;97354.81;1787492;80;20995;-66
2022/01/13 03:54:40;;;;;;;26.70;11.23;;;;;;;-13.08;74.40;97367.98;1786426;80;21077;-66
2022/01/13 03:57:49;;;;;;;38.77;16.70;;;;;;;-13.18;74.93;97361.81;1787596;80;21444;-66
2022/01/13 04:00:58;;;;;;;29.83;13.60;;;;;;;-13.27;74.41;97366.03;1786898;80;21087;-66
2022/01/13 04:03:24;;;;;;;31.73;15.17;;;;;;;-13.39;75.14;97374.58;1787374;80;20990;-66
2022/01/13 04:06:13;;;;;;;28.53;15.63;;;;;;;-13.39;75.14;97374.58;1786861;80;21510;-66
2022/01/13 04:08:40;;;;;;;46.10;20.13;;;;;;;-13.49;74.70;97371.86;1782801;80;21023;-67
2022/01/13 04:11:15;;;;;;;35.87;17.70;;;;;;;-13.56;75.17;97374.14;1786749;80;21042;-67
2022/01/13 04:16:22;;;;;;;77.90;32.33;;;;;;;-13.56;76.70;97383.91;1787186;80;21015;-66
2022/01/13 04:18:50;;;;;;;61.00;27.53;;;;;;;-13.43;76.52;97397.85;1786999;80;20983;-66
2022/01/13 04:21:18;;;;;;;63.37;27.77;;;;;;;-13.42;75.68;97397.13;1786910;80;21051;-66
2022/01/13 04:23:46;;;;;;;58.40;24.93;;;;;;;-13.48;75.66;97399.92;1787141;80;21067;-66
2022/01/13 04:26:19;;;;;;;49.77;22.10;;;;;;;-13.44;75.99;97397.34;1786758;80;21004;-66
2022/01/13 04:28:45;;;;;;;65.77;31.13;;;;;;;-13.35;76.23;97389.39;1786914;80;20999;-66
2022/01/13 04:31:12;;;;;;;62.80;32.00;;;;;;;-13.31;75.79;97380.94;1787339;80;21485;-66
2022/01/13 04:33:39;;;;;;;72.23;32.80;;;;;;;-13.22;76.07;97373.70;1787147;80;21026;-66
2022/01/13 04:36:08;;;;;;;68.43;29.40;;;;;;;-13.10;75.61;97374.55;1787123;80;21015;-66
2022/01/13 04:38:35;;;;;;;64.57;31.90;;;;;;;-13.10;75.61;97374.55;1787116;80;21042;-66
2022/01/13 04:41:04;;;;;;;60.47;27.07;;;;;;;-13.12;75.57;97373.48;1787200;80;20987;-66
2022/01/13 04:43:35;;;;;;;46.80;20.97;;;;;;;-13.03;76.38;97384.92;1787151;80;20988;-66
2022/01/13 04:46:07;;;;;;;44.70;19.57;;;;;;;-12.94;76.24;97390.03;1787087;80;20994;-66
2022/01/13 04:48:33;;;;;;;53.77;23.77;;;;;;;-12.91;75.95;97403.92;1787269;80;20987;-66
2022/01/13 04:51:01;;;;;;;18.03;7.17;;;;;;;-12.87;75.82;97399.69;1787118;80;21037;-66
2022/01/13 04:53:31;;;;;;;24.23;12.43;;;;;;;-12.84;75.77;97394.00;1786729;80;21050;-67
2022/01/13 04:55:59;;;;;;;28.93;14.97;;;;;;;-12.77;76.65;97412.05;1787252;80;21007;-66
2022/01/13 04:58:25;;;;;;;21.40;8.40;;;;;;;-12.59;76.60;97419.30;1787246;80;20955;-67
2022/01/13 05:00:54;;;;;;;35.20;18.47;;;;;;;-12.43;76.94;97413.69;1786859;80;21046;-67
2022/01/13 05:03:20;;;;;;;45.03;20.03;;;;;;;-12.36;77.06;97413.54;1787010;80;20979;-66
2022/01/13 05:05:50;;;;;;;43.47;19.17;;;;;;;-12.24;76.98;97399.47;1786819;80;21527;-66
2022/01/13 05:08:16;;;;;;;45.70;22.30;;;;;;;-12.13;76.86;97399.60;1787169;80;21469;-66
2022/01/13 05:10:42;;;;;;;40.83;17.43;;;;;;;-12.06;76.84;97405.80;1787123;80;20999;-66
2022/01/13 05:13:11;;;;;;;50.67;21.80;;;;;;;-11.95;76.91;97405.17;1787379;80;20947;-66
2022/01/13 05:15:40;;;;;;;50.27;21.00;;;;;;;-12.02;76.49;97393.87;1787218;80;20992;-67
2022/01/13 05:18:19;;;;;;;37.67;16.63;;;;;;;-11.99;77.04;97378.55;1787194;80;21066;-67
2022/01/13 05:20:56;;;;;;;28.63;11.90;;;;;;;-11.87;76.83;97376.25;1786501;80;21022;-67
2022/01/13 05:23:19;;;;;;;113.23;41.00;;;;;;;-11.81;76.06;97360.27;1785565;80;21022;-66
2022/01/13 05:25:45;;;;;;;90.20;36.57;;;;;;;-11.82;75.77;97348.27;1786857;80;21082;-67
2022/01/13 05:28:16;;;;;;;91.03;33.60;;;;;;;-11.86;76.31;97346.20;1787047;80;21015;-67
2022/01/13 05:30:44;;;;;;;78.93;32.10;;;;;;;-11.96;75.95;97352.88;1787145;80;20967;-67
2022/01/13 05:33:10;;;;;;;73.47;31.23;;;;;;;-11.96;76.13;97360.12;1787286;80;21018;-66
2022/01/13 05:35:38;;;;;;;61.90;26.77;;;;;;;-11.91;76.71;97372.91;1786762;80;21010;-66
2022/01/13 05:38:09;;;;;;;54.07;22.80;;;;;;;-11.90;76.62;97395.05;1787200;80;21050;-66
2022/01/13 05:40:37;;;;;;;64.50;22.63;;;;;;;-11.85;76.72;97404.38;1787008;80;21489;-67
2022/01/13 05:43:06;;;;;;;89.17;35.67;;;;;;;-11.77;76.80;97397.08;1787022;80;21369;-66
2022/01/13 05:45:33;;;;;;;78.53;28.93;;;;;;;-11.70;76.56;97400.73;1787202;80;21003;-66
2022/01/13 05:48:02;;;;;;;70.10;27.13;;;;;;;-11.62;76.35;97395.09;1786826;80;21007;-66
2022/01/13 05:50:30;;;;;;;51.10;21.77;;;;;;;-11.58;76.75;97413.35;1787092;80;21007;-66
2022/01/13 05:52:57;;;;;;;39.10;17.63;;;;;;;-11.55;76.93;97413.63;1787083;80;21019;-66
2022/01/13 05:55:24;;;;;;;45.63;20.67;;;;;;;-11.38;77.06;97416.88;1786828;80;21042;-67
2022/01/13 05:57:51;;;;;;;35.47;16.90;;;;;;;-11.16;76.58;97426.13;1786848;80;21047;-66
2022/01/13 06:00:20;;;;;;;27.67;11.80;;;;;;;-11.00;76.26;97424.27;1787241;80;20998;-67
2022/01/13 06:02:47;;;;;;;29.97;14.20;;;;;;;-10.81;76.02;97423.05;1787118;80;21034;-66
2022/01/13 06:05:15;;;;;;;26.60;12.33;;;;;;;-10.65;75.55;97407.88;1787171;80;20987;-67
2022/01/13 06:07:42;;;;;;;42.80;19.23;;;;;;;-10.63;74.89;97396.13;1787030;80;21018;-67
2022/01/13 06:10:14;;;;;;;39.67;18.30;;;;;;;-10.58;74.98;97402.53;1786482;80;21054;-67
2022/01/13 06:12:40;;;;;;;56.70;23.73;;;;;;;-10.51;74.78;97399.41;1787083;80;20994;-66
2022/01/13 06:15:12;;;;;;;95.87;36.47;;;;;;;-10.52;74.50;97396.34;1787194;80;20979;-66
2022/01/13 06:17:42;;;;;;;115.93;39.73;;;;;;;-10.51;75.01;97381.93;1785580;80;21003;-67
2022/01/13 06:20:12;;;;;;;105.57;37.97;;;;;;;-10.43;74.93;97369.86;1787069;80;20991;-67
2022/01/13 06:22:41;;;;;;;74.77;28.57;;;;;;;-10.33;75.20;97363.54;1787066;80;21082;-67
2022/01/13 06:25:12;;;;;;;79.80;33.43;;;;;;;-10.13;75.32;97359.81;1787093;80;21030;-67
2022/01/13 06:27:40;;;;;;;68.03;30.63;;;;;;;-10.01;74.81;97362.14;1787040;80;20967;-67
2022/01/13 06:30:11;;;;;;;106.50;42.10;;;;;;;-9.98;74.16;97343.64;1787188;80;21441;-67
2022/01/13 06:32:39;;;;;;;68.17;27.90;;;;;;;-9.91;74.58;97348.52;1787109;80;21477;-67
2022/01/13 06:35:08;;;;;;;56.47;26.13;;;;;;;-9.76;74.83;97343.86;1786534;80;21050;-67
2022/01/13 06:37:35;;;;;;;56.67;26.97;;;;;;;-9.73;74.47;97337.73;1787278;80;21468;-66
2022/01/13 06:40:05;;;;;;;40.77;19.77;;;;;;;-9.80;74.88;97340.16;1787142;80;20968;-67
2022/01/13 06:42:31;;;;;;;43.57;21.43;;;;;;;-9.72;74.78;97338.27;1787069;80;21470;-67
2022/01/13 06:44:58;;;;;;;42.60;18.77;;;;;;;-9.59;74.78;97335.10;1787008;80;21059;-67
2022/01/13 06:47:28;;;;;;;34.33;18.43;;;;;;;-9.46;74.50;97338.33;1786993;80;21524;-67
2022/01/13 06:49:54;;;;;;;45.27;22.83;;;;;;;-9.45;74.37;97353.80;1749374;80;21086;-67
2022/01/13 06:52:21;;;;;;;45.33;23.43;;;;;;;-9.37;74.71;97360.84;1786675;80;21018;-67
2022/01/13 06:54:48;;;;;;;43.30;20.50;;;;;;;-9.30;74.70;97369.91;1787127;80;20983;-67
2022/01/13 06:57:17;;;;;;;40.80;20.43;;;;;;;-9.27;75.25;97364.70;1787063;80;20986;-67
2022/01/13 06:59:44;;;;;;;42.60;20.87;;;;;;;-9.26;75.42;97360.08;1785890;80;21067;-67
2022/01/13 07:02:14;;;;;;;41.40;21.00;;;;;;;-9.21;75.22;97365.20;1787266;80;20999;-67
2022/01/13 07:04:42;;;;;;;38.30;18.60;;;;;;;-9.14;75.54;97369.19;1754540;80;21121;-67
2022/01/13 07:07:12;;;;;;;40.90;19.03;;;;;;;-8.93;75.66;97368.42;1787098;80;21065;-67
2022/01/13 07:09:38;;;;;;;38.90;17.90;;;;;;;-8.73;75.15;97371.76;1787264;80;21050;-67
2022/01/13 07:12:09;;;;;;;33.80;16.77;;;;;;;-8.61;74.44;97365.49;1787102;80;20983;-67
2022/01/13 07:14:36;;;;;;;35.27;17.47;;;;;;;-8.53;73.99;97375.97;1786925;80;21528;-67
2022/01/13 07:17:04;;;;;;;35.17;17.17;;;;;;;-8.50;73.71;97382.61;1787534;80;20971;-67
2022/01/13 07:19:31;;;;;;;39.33;18.03;;;;;;;-8.42;73.84;97384.13;1787296;80;20990;-67
2022/01/13 07:21:58;;;;;;;37.03;18.33;;;;;;;-8.41;73.37;97381.22;1787126;80;20987;-67
2022/01/13 07:24:24;;;;;;;51.50;23.00;;;;;;;-8.39;73.26;97395.01;1786939;80;21265;-67
2022/01/13 07:26:51;;;;;;;46.93;20.47;;;;;;;-8.34;73.59;97410.33;1787108;80;20999;-67
2022/01/13 07:29:17;;;;;;;32.43;17.43;;;;;;;-8.35;74.08;97422.24;1787132;80;21003;-66
2022/01/13 07:31:46;;;;;;;35.40;17.70;;;;;;;-8.25;74.69;97422.63;1786969;80;21050;-67
2022/01/13 07:34:13;;;;;;;35.97;16.67;;;;;;;-8.13;74.98;97423.63;1786840;80;21046;-67
2022/01/13 07:36:40;;;;;;;37.83;17.40;;;;;;;-8.04;74.44;97414.50;1787035;80;20986;-67
2022/01/13 07:39:08;;;;;;;49.90;22.87;;;;;;;-7.94;74.21;97422.56;1787380;80;21033;-67
2022/01/13 07:41:42;;;;;;;38.60;19.20;;;;;;;-7.93;74.17;97441.91;1786743;80;21030;-67
2022/01/13 07:44:07;;;;;;;48.10;22.30;;;;;;;-7.87;74.58;97453.03;1785574;80;21074;-67
2022/01/13 07:46:34;;;;;;;34.47;15.43;;;;;;;-7.77;75.02;97448.27;1786319;80;21000;-67
2022/01/13 07:49:01;;;;;;;52.13;24.53;;;;;;;-7.94;74.91;97455.47;1787247;80;20963;-66
2022/01/13 07:51:29;;;;;;;53.83;23.87;;;;;;;-7.88;75.20;97453.42;1787206;80;21047;-67
2022/01/13 07:53:57;;;;;;;66.00;28.03;;;;;;;-7.67;75.69;97441.84;1787025;80;21038;-66
2022/01/13 07:56:24;;;;;;;73.47;30.97;;;;;;;-7.51;75.64;97433.34;1786830;80;21003;-67
2022/01/13 07:58:50;;;;;;;68.70;27.40;;;;;;;-7.30;75.55;97430.29;1787250;80;21006;-67
2022/01/13 08:01:17;;;;;;;55.47;22.50;;;;;;;-7.08;75.26;97426.83;1787247;80;21022;-67
2022/01/13 08:03:43;;;;;;;56.03;23.17;;;;;;;-6.89;74.85;97424.03;1787195;80;20967;-67
2022/01/13 08:06:12;;;;;;;59.03;25.50;;;;;;;-6.77;73.68;97423.30;1786874;80;21058;-67
2022/01/13 08:08:38;;;;;;;68.07;29.83;;;;;;;-6.59;73.70;97417.39;1786893;80;20994;-67
2022/01/13 08:11:08;;;;;;;61.90;26.77;;;;;;;-6.36;73.51;97391.27;1787033;80;20983;-67
2022/01/13 08:13:36;;;;;;;54.40;24.87;;;;;;;-6.20;72.95;97383.95;1787223;80;21453;-67
2022/01/13 08:16:10;;;;;;;54.87;24.27;;;;;;;-6.10;72.77;97386.77;1786878;80;21015;-67
2022/01/13 08:21:25;;;;;;;32.63;15.27;;;;;;;-5.90;72.90;97377.56;1787337;80;21011;-67
2022/01/13 08:23:51;;;;;;;27.10;14.17;;;;;;;-5.90;71.71;97379.20;1787256;80;21026;-67
2022/01/13 08:26:19;;;;;;;35.07;18.67;;;;;;;-5.94;71.35;97374.68;1786729;80;21592;-67
2022/01/13 08:28:46;;;;;;;32.40;15.67;;;;;;;-5.85;71.53;97375.30;1787348;80;21018;-67
2022/01/13 08:31:13;;;;;;;29.90;15.50;;;;;;;-5.74;71.75;97367.09;1786792;80;21582;-67
2022/01/13 08:33:41;;;;;;;30.60;14.83;;;;;;;-5.60;71.47;97371.53;1787242;80;21446;-67
2022/01/13 08:36:11;;;;;;;48.17;23.57;;;;;;;-5.51;70.67;97378.63;1786987;80;21011;-67
2022/01/13 08:38:37;;;;;;;63.43;28.67;;;;;;;-5.44;70.79;97377.00;1787205;80;20990;-67
2022/01/13 08:41:06;;;;;;;54.73;27.27;;;;;;;-5.18;71.57;97378.34;1787020;80;20991;-67
2022/01/13 08:43:34;;;;;;;47.50;23.47;;;;;;;-4.90;71.20;97389.77;1786984;80;21457;-67
2022/01/13 08:46:03;;;;;;;39.20;18.57;;;;;;;-4.80;70.17;97407.64;1794388;80;21074;-67
2022/01/13 08:48:33;;;;;;;35.13;17.17;;;;;;;-4.75;69.77;97419.55;1795593;80;21499;-67
2022/01/13 08:51:01;;;;;;;30.97;13.17;;;;;;;-4.58;69.54;97411.31;1795569;80;21038;-67
2022/01/13 08:53:27;;;;;;;35.43;15.97;;;;;;;-4.36;69.43;97422.69;1795395;80;21014;-67
2022/01/13 08:56:00;;;;;;;30.47;14.70;;;;;;;-4.22;68.92;97420.14;1795249;80;21083;-67
2022/01/13 08:58:26;;;;;;;22.10;11.87;;;;;;;-4.06;68.48;97432.37;1795326;80;20993;-67
2022/01/13 09:00:55;;;;;;;28.90;13.30;;;;;;;-4.21;67.99;97441.25;1795582;80;20973;-67
2022/01/13 09:03:23;;;;;;;41.10;19.73;;;;;;;-4.47;69.25;97433.93;1795690;80;20959;-67
2022/01/13 09:05:50;;;;;;;43.20;20.47;;;;;;;-4.43;70.33;97448.83;1795112;80;21070;-67
2022/01/13 09:08:18;;;;;;;34.37;16.53;;;;;;;-4.45;71.01;97453.38;1795456;80;20999;-67
2022/01/13 09:10:45;;;;;;;39.93;18.30;;;;;;;-4.50;71.63;97447.01;1794784;80;21090;-67
2022/01/13 09:13:15;;;;;;;38.70;18.97;;;;;;;-4.46;70.87;97458.92;1795360;80;20983;-67
2022/01/13 09:15:50;;;;;;;42.67;17.53;;;;;;;-4.40;70.80;97458.05;1795500;80;20998;-67
2022/01/13 09:18:18;;;;;;;40.90;18.57;;;;;;;-4.37;70.06;97447.94;1795031;80;21029;-67
2022/01/13 09:20:44;;;;;;;37.43;18.97;;;;;;;-4.35;69.94;97442.50;1794951;80;21090;-67
2022/01/13 09:23:13;;;;;;;42.00;20.27;;;;;;;-4.30;69.53;97423.89;1795806;80;21031;-67
2022/01/13 09:25:40;;;;;;;38.80;17.63;;;;;;;-4.06;70.13;97419.08;1795160;80;20983;-67
2022/01/13 09:28:08;;;;;;;25.87;12.40;;;;;;;-3.75;69.52;97407.83;1794983;80;21022;-67
2022/01/13 09:30:39;;;;;;;36.27;16.57;;;;;;;-3.58;68.28;97407.64;1795931;80;21471;-67
2022/01/13 09:33:10;;;;;;;38.33;17.90;;;;;;;-3.54;68.25;97403.16;1795602;80;21022;-67
2022/01/13 09:35:40;;;;;;;39.67;18.70;;;;;;;-3.50;67.59;97399.11;1795225;80;20975;-67
2022/01/13 09:38:07;;;;;;;36.83;16.10;;;;;;;-3.50;67.76;97390.08;1794389;80;21067;-67
2022/01/13 09:40:34;;;;;;;35.47;16.47;;;;;;;-3.44;66.79;97391.74;1795383;80;20960;-67
2022/01/13 09:43:02;;;;;;;35.73;17.13;;;;;;;-3.42;66.63;97395.73;1795335;80;21113;-67
2022/01/13 09:45:30;;;;;;;35.87;16.47;;;;;;;-3.52;66.94;97386.09;1795474;80;21042;-67
2022/01/13 09:47:58;;;;;;;31.00;15.17;;;;;;;-3.57;66.48;97384.02;1795211;80;21030;-67
2022/01/13 09:50:25;;;;;;;36.30;17.73;;;;;;;-3.63;66.51;97381.03;1795387;80;21583;-67
2022/01/13 09:52:51;;;;;;;34.40;16.53;;;;;;;-3.56;67.12;97381.92;1795612;80;20999;-67
2022/01/13 09:55:20;;;;;;;32.50;16.03;;;;;;;-3.54;66.87;97368.73;1795268;80;21485;-67
2022/01/13 09:57:52;;;;;;;40.07;18.20;;;;;;;-3.49;66.80;97367.33;1794679;80;21015;-67
2022/01/13 10:00:25;;;;;;;35.60;16.80;;;;;;;-3.36;67.31;97361.26;1795161;80;21130;-67
2022/01/13 10:02:54;;;;;;;31.77;16.45;;;;;;;-3.40;66.92;97361.48;1795648;80;20990;-67
2022/01/13 10:05:23;;;;;;;39.23;16.53;;;;;;;-3.38;66.67;97354.70;1795557;80;21006;-67
2022/01/13 10:07:55;;;;;;;36.63;16.43;;;;;;;-3.24;66.89;97353.00;1795500;80;21449;-67
2022/01/13 10:10:28;;;;;;;37.00;16.33;;;;;;;-3.14;66.78;97357.05;1795370;80;21011;-67
2022/01/13 10:13:04;;;;;;;35.85;16.40;;;;;;;-3.08;66.59;97361.30;1795161;80;20987;-67
2022/01/13 10:18:46;;;;;;;32.93;15.47;;;;;;;-2.99;66.09;97345.09;1795132;80;21010;-67
2022/01/13 10:21:19;;;;;;;33.70;15.67;;;;;;;-2.96;66.01;97336.23;1795137;80;21011;-68
2022/01/13 10:24:12;;;;;;;37.20;17.90;;;;;;;-2.94;65.27;97335.05;1795620;80;21078;-68
2022/01/13 10:26:43;;;;;;;36.47;17.80;;;;;;;-2.80;65.52;97327.71;1790447;80;21492;-68
2022/01/13 10:29:13;;;;;;;37.47;16.57;;;;;;;-2.78;65.09;97329.11;1790109;80;21568;-67
2022/01/13 10:31:50;;;;;;;34.93;17.17;;;;;;;-2.79;64.66;97319.18;1794993;80;21078;-67
2022/01/13 10:34:28;;;;;;;36.63;17.27;;;;;;;-2.81;64.84;97317.31;1792376;80;21588;-67
2022/01/13 10:37:06;;;;;;;42.43;19.00;;;;;;;-2.77;64.63;97317.96;1794999;80;21069;-67
2022/01/13 10:39:58;;;;;;;45.50;20.30;;;;;;;-2.75;64.38;97328.88;1794182;80;21034;-68
2022/01/13 10:43:06;;;;;;;37.63;17.47;;;;;;;-2.64;64.11;97326.56;1795501;80;21073;-68
2022/01/13 10:45:20;;;;;;;43.13;19.57;;;;;;;-2.65;63.74;97340.66;1781883;80;21010;-68
2022/01/13 10:47:59;;;;;;;39.20;19.10;;;;;;;-2.65;64.29;97354.47;1795068;80;21532;-68
2022/01/13 10:50:34;;;;;;;41.47;18.87;;;;;;;-2.71;64.55;97357.10;1795509;80;21599;-68
2022/01/13 10:53:04;;;;;;;43.80;19.47;;;;;;;-2.69;64.62;97365.84;1795493;80;21055;-68
2022/01/13 10:55:49;;;;;;;36.97;17.43;;;;;;;-2.75;64.61;97377.08;1795627;80;21007;-68
2022/01/13 10:58:27;;;;;;;37.20;17.53;;;;;;;-2.80;64.49;97378.49;1795223;80;21034;-68
2022/01/13 11:00:55;;;;;;;37.10;17.73;;;;;;;-2.71;65.04;97371.31;1795371;80;21086;-68
2022/01/13 11:03:25;;;;;;;36.37;16.53;;;;;;;-2.60;64.80;97370.26;1795377;80;21479;-68
2022/01/13 11:06:03;;;;;;;38.27;16.70;;;;;;;-2.49;64.34;97381.27;1795417;80;20995;-68
2022/01/13 11:08:44;;;;;;;35.70;17.27;;;;;;;-2.51;64.35;97372.52;1794948;80;21053;-68
2022/01/13 11:11:26;;;;;;;39.90;19.10;;;;;;;-2.45;64.43;97371.59;1795054;80;21469;-68
2022/01/13 11:14:06;;;;;;;38.23;17.90;;;;;;;-2.45;64.15;97365.13;1795339;80;21042;-68
2022/01/13 11:16:30;;;;;;;41.00;19.83;;;;;;;-2.43;63.94;97375.16;1794078;80;21025;-68
2022/01/13 11:18:58;;;;;;;44.83;20.33;;;;;;;-2.40;64.07;97378.80;1759132;80;21572;-68
2022/01/13 11:21:27;;;;;;;35.30;17.07;;;;;;;-2.41;63.98;97373.16;1795400;80;21514;-68
2022/01/13 11:23:59;;;;;;;42.00;19.17;;;;;;;-2.39;64.10;97369.38;1795376;80;20971;-68
2022/01/13 11:26:30;;;;;;;43.50;17.77;;;;;;;-2.35;64.24;97376.91;1795362;80;21025;-68
2022/01/13 11:29:04;;;;;;;31.77;14.87;;;;;;;-2.31;63.96;97373.31;1795280;80;21057;-67
2022/01/13 11:31:30;;;;;;;30.88;15.45;;;;;;;-2.27;64.29;97375.28;1795559;80;21495;-67
2022/01/13 11:33:58;;;;;;;31.10;15.97;;;;;;;-2.27;64.29;97375.28;1794903;80;21485;-67
2022/01/13 11:36:26;;;;;;;28.87;14.97;;;;;;;-2.26;63.78;97357.67;1795319;80;21033;-67
2022/01/13 11:38:59;;;;;;;30.97;15.60;;;;;;;-2.27;63.61;97354.60;1795349;80;21488;-67
2022/01/13 11:41:28;;;;;;;37.43;16.87;;;;;;;-2.25;63.55;97344.33;1795152;80;21122;-67
2022/01/13 11:44:14;;;;;;;33.30;15.20;;;;;;;-2.29;63.54;97342.39;1794945;80;21022;-67
2022/01/13 11:46:50;;;;;;;34.25;16.75;;;;;;;-2.26;63.68;97341.27;1760030;81;21063;-67